sensor_id;sensor_type;location;lat;lon;timestamp;pressure;altitude;pressure_sealevel;temperature;humidity
73341;BME280;61578;52.002;5.468;2024-01-30T00:00:12;102581.91;;;8.61;85.74
73341;BME280;61578;52.002;5.468;2024-01-30T00:00:43;102555.66;;;8.54;85.14
73341;BME280;61578;52.002;5.468;2024-01-30T00:01:13;102523.63;;;8.30;84.86
73341;BME280;61578;52.002;5.468;2024-01-30T00:01:44;102578.16;;;8.68;86.17
73341;BME280;61578;52.002;5.468;2024-01-30T00:02:15;102585.25;;;8.68;85.11
73341;BME280;61578;52.002;5.468;2024-01-30T00:02:46;102576.66;;;8.60;84.68
73341;BME280;61578;52.002;5.468;2024-01-30T00:03:17;102584.53;;;8.63;84.20
73341;BME280;61578;52.002;5.468;2024-01-30T00:03:48;102574.25;;;8.51;85.01
73341;BME280;61578;52.002;5.468;2024-01-30T00:04:21;102568.91;;;8.54;84.43
73341;BME280;61578;52.002;5.468;2024-01-30T00:04:52;102585.50;;;8.59;85.52
73341;BME280;61578;52.002;5.468;2024-01-30T00:05:22;102576.66;;;8.60;85.11
73341;BME280;61578;52.002;5.468;2024-01-30T00:05:53;102563.69;;;8.51;84.67
73341;BME280;61578;52.002;5.468;2024-01-30T00:06:24;102582.06;;;8.55;84.29
73341;BME280;61578;52.002;5.468;2024-01-30T00:06:55;102581.97;;;8.58;85.22
73341;BME280;61578;52.002;5.468;2024-01-30T00:07:25;102574.88;;;8.60;85.00
73341;BME280;61578;52.002;5.468;2024-01-30T00:07:56;102585.53;;;8.57;84.69
73341;BME280;61578;52.002;5.468;2024-01-30T00:08:27;102579.34;;;8.58;85.35
73341;BME280;61578;52.002;5.468;2024-01-30T00:08:58;102577.56;;;8.59;84.88
73341;BME280;61578;52.002;5.468;2024-01-30T00:09:29;102581.16;;;8.56;84.80
73341;BME280;61578;52.002;5.468;2024-01-30T00:10:00;102569.03;;;8.47;84.79
73341;BME280;61578;52.002;5.468;2024-01-30T00:10:30;102571.47;;;8.55;84.85
73341;BME280;61578;52.002;5.468;2024-01-30T00:11:01;102565.56;;;8.45;85.49
73341;BME280;61578;52.002;5.468;2024-01-30T00:11:32;102578.56;;;8.55;85.73
73341;BME280;61578;52.002;5.468;2024-01-30T00:12:02;102564.75;;;8.43;84.36
73341;BME280;61578;52.002;5.468;2024-01-30T00:12:33;102590.16;;;8.51;84.37
73341;BME280;61578;52.002;5.468;2024-01-30T00:13:04;102589.28;;;8.50;84.75
73341;BME280;61578;52.002;5.468;2024-01-30T00:13:35;102593.75;;;8.48;84.78
73341;BME280;61578;52.002;5.468;2024-01-30T00:14:06;102575.28;;;8.45;85.08
73341;BME280;61578;52.002;5.468;2024-01-30T00:14:36;102577.13;;;8.43;85.20
73341;BME280;61578;52.002;5.468;2024-01-30T00:15:07;102586.66;;;8.48;85.02
73341;BME280;61578;52.002;5.468;2024-01-30T00:15:39;102573.50;;;8.45;84.30
73341;BME280;61578;52.002;5.468;2024-01-30T00:16:23;102578.88;;;8.44;84.86
73341;BME280;61578;52.002;5.468;2024-01-30T00:16:54;102579.59;;;8.49;85.72
73341;BME280;61578;52.002;5.468;2024-01-30T00:17:25;102540.53;;;8.25;85.37
73341;BME280;61578;52.002;5.468;2024-01-30T00:17:56;102569.88;;;8.49;85.39
73341;BME280;61578;52.002;5.468;2024-01-30T00:18:27;102576.03;;;8.50;85.41
73341;BME280;61578;52.002;5.468;2024-01-30T00:18:58;102582.94;;;8.56;85.26
73341;BME280;61578;52.002;5.468;2024-01-30T00:19:28;102583.03;;;8.53;84.72
73341;BME280;61578;52.002;5.468;2024-01-30T00:19:59;102576.91;;;8.51;84.84
73341;BME280;61578;52.002;5.468;2024-01-30T00:20:30;102527.38;;;8.23;84.85
73341;BME280;61578;52.002;5.468;2024-01-30T00:21:00;102572.53;;;8.49;85.56
73341;BME280;61578;52.002;5.468;2024-01-30T00:21:31;102577.63;;;8.56;85.53
73341;BME280;61578;52.002;5.468;2024-01-30T00:22:02;102574.00;;;8.60;85.94
73341;BME280;61578;52.002;5.468;2024-01-30T00:22:33;102572.25;;;8.59;85.10
73341;BME280;61578;52.002;5.468;2024-01-30T00:23:04;102530.66;;;8.33;84.83
73341;BME280;61578;52.002;5.468;2024-01-30T00:23:35;102577.63;;;8.56;85.10
73341;BME280;61578;52.002;5.468;2024-01-30T00:24:05;102571.47;;;8.55;85.25
73341;BME280;61578;52.002;5.468;2024-01-30T00:24:36;102562.81;;;8.50;85.01
73341;BME280;61578;52.002;5.468;2024-01-30T00:25:07;102568.06;;;8.52;84.50
73341;BME280;61578;52.002;5.468;2024-01-30T00:25:38;102569.00;;;8.49;83.92
73341;BME280;61578;52.002;5.468;2024-01-30T00:26:09;102573.41;;;8.50;84.29
73341;BME280;61578;52.002;5.468;2024-01-30T00:26:40;102569.94;;;8.46;84.53
73341;BME280;61578;52.002;5.468;2024-01-30T00:27:11;102526.59;;;8.18;85.08
73341;BME280;61578;52.002;5.468;2024-01-30T00:27:41;102570.75;;;8.50;85.84
73341;BME280;61578;52.002;5.468;2024-01-30T00:28:12;102517.72;;;8.21;85.66
73341;BME280;61578;52.002;5.468;2024-01-30T00:28:43;102577.63;;;8.56;85.91
73341;BME280;61578;52.002;5.468;2024-01-30T00:29:14;102572.34;;;8.56;85.15
73341;BME280;61578;52.002;5.468;2024-01-30T00:29:49;102561.94;;;8.49;84.50
73341;BME280;61578;52.002;5.468;2024-01-30T00:30:20;102582.13;;;8.54;85.26
73341;BME280;61578;52.002;5.468;2024-01-30T00:30:51;102573.28;;;8.55;84.79
73341;BME280;61578;52.002;5.468;2024-01-30T00:31:22;102573.31;;;8.53;84.87
73341;BME280;61578;52.002;5.468;2024-01-30T00:31:52;102576.84;;;8.54;84.88
73341;BME280;61578;52.002;5.468;2024-01-30T00:32:23;102557.72;;;8.42;84.90
73341;BME280;61578;52.002;5.468;2024-01-30T00:32:54;102581.31;;;8.52;84.81
73341;BME280;61578;52.002;5.468;2024-01-30T00:33:25;102577.78;;;8.51;84.10
73341;BME280;61578;52.002;5.468;2024-01-30T00:33:56;102530.91;;;8.22;84.44
73341;BME280;61578;52.002;5.468;2024-01-30T00:34:26;102565.56;;;8.45;84.67
73341;BME280;61578;52.002;5.468;2024-01-30T00:34:57;102571.81;;;8.44;84.87
73341;BME280;61578;52.002;5.468;2024-01-30T00:35:28;102585.88;;;8.45;84.58
73341;BME280;61578;52.002;5.468;2024-01-30T00:35:59;102571.84;;;8.43;84.76
73341;BME280;61578;52.002;5.468;2024-01-30T00:36:30;102564.88;;;8.39;84.38
73341;BME280;61578;52.002;5.468;2024-01-30T00:37:01;102575.34;;;8.43;84.63
73341;BME280;61578;52.002;5.468;2024-01-30T00:37:31;102520.47;;;8.16;84.76
73341;BME280;61578;52.002;5.468;2024-01-30T00:38:02;102559.81;;;8.31;83.66
73341;BME280;61578;52.002;5.468;2024-01-30T00:38:33;102563.31;;;8.32;84.04
73341;BME280;61578;52.002;5.468;2024-01-30T00:39:04;102523.41;;;8.05;84.29
73341;BME280;61578;52.002;5.468;2024-01-30T00:39:37;102566.84;;;8.31;84.59
73341;BME280;61578;52.002;5.468;2024-01-30T00:40:08;102573.03;;;8.31;84.33
73341;BME280;61578;52.002;5.468;2024-01-30T00:40:45;102569.47;;;8.31;83.97
73341;BME280;61578;52.002;5.468;2024-01-30T00:41:19;102564.34;;;8.25;83.85
73341;BME280;61578;52.002;5.468;2024-01-30T00:41:50;102550.59;;;8.12;84.21
73341;BME280;61578;52.002;5.468;2024-01-30T00:42:20;102568.91;;;8.20;84.66
73341;BME280;61578;52.002;5.468;2024-01-30T00:42:54;102567.97;;;8.22;84.49
73341;BME280;61578;52.002;5.468;2024-01-30T00:43:24;102523.75;;;7.93;84.87
73341;BME280;61578;52.002;5.468;2024-01-30T00:43:56;102574.09;;;8.24;84.89
73341;BME280;61578;52.002;5.468;2024-01-30T00:44:27;102571.44;;;8.24;85.50
73341;BME280;61578;52.002;5.468;2024-01-30T00:44:58;102571.44;;;8.24;85.42
73341;BME280;61578;52.002;5.468;2024-01-30T00:45:28;102570.56;;;8.24;85.47
73341;BME280;61578;52.002;5.468;2024-01-30T00:45:59;102556.41;;;8.25;85.49
73341;BME280;61578;52.002;5.468;2024-01-30T00:46:30;102569.63;;;8.25;85.69
73341;BME280;61578;52.002;5.468;2024-01-30T00:47:01;102561.63;;;8.28;85.51
73341;BME280;61578;52.002;5.468;2024-01-30T00:47:32;102582.75;;;8.29;85.68
73341;BME280;61578;52.002;5.468;2024-01-30T00:48:03;102518.19;;;8.04;85.36
73341;BME280;61578;52.002;5.468;2024-01-30T00:48:34;102569.53;;;8.29;84.96
73341;BME280;61578;52.002;5.468;2024-01-30T00:49:05;102515.81;;;7.93;85.47
73341;BME280;61578;52.002;5.468;2024-01-30T00:49:36;102561.88;;;8.19;85.44
73341;BME280;61578;52.002;5.468;2024-01-30T00:50:07;102571.59;;;8.18;85.10
73341;BME280;61578;52.002;5.468;2024-01-30T00:50:38;102562.75;;;8.19;84.90
73341;BME280;61578;52.002;5.468;2024-01-30T00:51:09;102557.41;;;8.21;85.26
73341;BME280;61578;52.002;5.468;2024-01-30T00:51:40;102560.91;;;8.23;86.20
73341;BME280;61578;52.002;5.468;2024-01-30T00:52:11;102556.41;;;8.25;86.08
73341;BME280;61578;52.002;5.468;2024-01-30T00:52:42;102549.44;;;8.22;85.70
73341;BME280;61578;52.002;5.468;2024-01-30T00:53:15;102550.31;;;8.23;85.44
73341;BME280;61578;52.002;5.468;2024-01-30T00:53:46;102553.72;;;8.26;86.11
73341;BME280;61578;52.002;5.468;2024-01-30T00:54:16;102502.53;;;7.95;85.41
73341;BME280;61578;52.002;5.468;2024-01-30T00:54:47;102563.41;;;8.27;85.45
73341;BME280;61578;52.002;5.468;2024-01-30T00:55:18;102550.13;;;8.29;85.46
73341;BME280;61578;52.002;5.468;2024-01-30T00:55:49;102555.38;;;8.32;85.63
73341;BME280;61578;52.002;5.468;2024-01-30T00:56:20;102562.41;;;8.33;85.52
73341;BME280;61578;52.002;5.468;2024-01-30T00:56:51;102561.53;;;8.32;85.02
73341;BME280;61578;52.002;5.468;2024-01-30T00:57:21;102552.78;;;8.29;84.45
73341;BME280;61578;52.002;5.468;2024-01-30T00:57:52;102549.44;;;8.22;84.47
73341;BME280;61578;52.002;5.468;2024-01-30T00:58:23;102557.28;;;8.25;84.79
73341;BME280;61578;52.002;5.468;2024-01-30T00:58:53;102504.31;;;7.94;84.88
73341;BME280;61578;52.002;5.468;2024-01-30T00:59:24;102555.63;;;8.21;84.62
73341;BME280;61578;52.002;5.468;2024-01-30T00:59:55;102553.03;;;8.20;84.77
73341;BME280;61578;52.002;5.468;2024-01-30T01:00:26;102557.44;;;8.19;84.98
73341;BME280;61578;52.002;5.468;2024-01-30T01:00:59;102542.72;;;8.09;84.77
73341;BME280;61578;52.002;5.468;2024-01-30T01:01:30;102547.13;;;8.10;85.03
73341;BME280;61578;52.002;5.468;2024-01-30T01:02:00;102558.38;;;8.17;85.87
73341;BME280;61578;52.002;5.468;2024-01-30T01:02:31;102550.44;;;8.17;85.30
73341;BME280;61578;52.002;5.468;2024-01-30T01:03:02;102517.50;;;7.96;85.98
73341;BME280;61578;52.002;5.468;2024-01-30T01:03:33;102559.19;;;8.20;85.75
73341;BME280;61578;52.002;5.468;2024-01-30T01:04:04;102516.63;;;7.95;84.91
73341;BME280;61578;52.002;5.468;2024-01-30T01:04:34;102561.88;;;8.19;85.21
73341;BME280;61578;52.002;5.468;2024-01-30T01:05:05;102553.97;;;8.17;85.80
73341;BME280;61578;52.002;5.468;2024-01-30T01:05:36;102553.03;;;8.20;86.26
73341;BME280;61578;52.002;5.468;2024-01-30T01:06:07;102566.22;;;8.21;86.45
73341;BME280;61578;52.002;5.468;2024-01-30T01:06:38;102563.50;;;8.24;85.21
73341;BME280;61578;52.002;5.468;2024-01-30T01:07:08;102518.41;;;7.95;84.67
73341;BME280;61578;52.002;5.468;2024-01-30T01:07:39;102555.72;;;8.18;85.12
73341;BME280;61578;52.002;5.468;2024-01-30T01:08:10;102553.91;;;8.20;85.64
73341;BME280;61578;52.002;5.468;2024-01-30T01:08:41;102564.47;;;8.20;85.44
73341;BME280;61578;52.002;5.468;2024-01-30T01:09:12;102560.94;;;8.21;85.03
73341;BME280;61578;52.002;5.468;2024-01-30T01:09:42;102566.25;;;8.20;84.62
73341;BME280;61578;52.002;5.468;2024-01-30T01:10:14;102512.34;;;7.91;84.94
73341;BME280;61578;52.002;5.468;2024-01-30T01:10:46;102561.84;;;8.20;85.87
73341;BME280;61578;52.002;5.468;2024-01-30T01:11:16;102559.25;;;8.17;85.06
73341;BME280;61578;52.002;5.468;2024-01-30T01:11:47;102561.75;;;8.23;85.92
73341;BME280;61578;52.002;5.468;2024-01-30T01:12:18;102564.41;;;8.23;85.76
73341;BME280;61578;52.002;5.468;2024-01-30T01:12:49;102558.38;;;8.17;84.73
73341;BME280;61578;52.002;5.468;2024-01-30T01:13:20;102545.25;;;8.13;84.73
73341;BME280;61578;52.002;5.468;2024-01-30T01:13:50;102516.63;;;7.95;85.31
73341;BME280;61578;52.002;5.468;2024-01-30T01:14:21;102560.16;;;8.16;85.21
73341;BME280;61578;52.002;5.468;2024-01-30T01:14:52;102554.91;;;8.14;84.84
73341;BME280;61578;52.002;5.468;2024-01-30T01:15:22;102552.38;;;8.11;85.14
73341;BME280;61578;52.002;5.468;2024-01-30T01:15:53;102545.38;;;8.09;86.53
73341;BME280;61578;52.002;5.468;2024-01-30T01:16:24;102558.34;;;8.18;86.56
73341;BME280;61578;52.002;5.468;2024-01-30T01:16:55;102549.50;;;8.19;86.10
73341;BME280;61578;52.002;5.468;2024-01-30T01:17:26;102554.69;;;8.24;85.23
73341;BME280;61578;52.002;5.468;2024-01-30T01:17:57;102557.34;;;8.24;85.21
73341;BME280;61578;52.002;5.468;2024-01-30T01:18:28;102559.91;;;8.25;85.39
73341;BME280;61578;52.002;5.468;2024-01-30T01:18:59;102558.13;;;8.26;85.06
73341;BME280;61578;52.002;5.468;2024-01-30T01:19:30;102560.03;;;8.22;85.34
73341;BME280;61578;52.002;5.468;2024-01-30T01:20:01;102551.19;;;8.23;84.99
73341;BME280;61578;52.002;5.468;2024-01-30T01:20:33;102509.56;;;7.96;84.73
73341;BME280;61578;52.002;5.468;2024-01-30T01:21:04;102558.25;;;8.23;85.15
73341;BME280;61578;52.002;5.468;2024-01-30T01:21:35;102550.34;;;8.21;85.90
73341;BME280;61578;52.002;5.468;2024-01-30T01:22:06;102559.84;;;8.28;85.73
73341;BME280;61578;52.002;5.468;2024-01-30T01:22:37;102558.09;;;8.27;85.99
73341;BME280;61578;52.002;5.468;2024-01-30T01:23:11;102544.03;;;8.25;85.56
73341;BME280;61578;52.002;5.468;2024-01-30T01:23:42;102548.31;;;8.32;85.75
73341;BME280;61578;52.002;5.468;2024-01-30T01:24:13;102518.91;;;8.09;84.27
73341;BME280;61578;52.002;5.468;2024-01-30T01:24:44;102541.34;;;8.27;84.79
73341;BME280;61578;52.002;5.468;2024-01-30T01:25:15;102548.53;;;8.23;84.84
73341;BME280;61578;52.002;5.468;2024-01-30T01:25:46;102535.34;;;8.22;84.51
73341;BME280;61578;52.002;5.468;2024-01-30T01:26:16;102531.09;;;8.14;84.56
73341;BME280;61578;52.002;5.468;2024-01-30T01:26:47;102545.88;;;8.23;84.68
73341;BME280;61578;52.002;5.468;2024-01-30T01:27:18;102550.31;;;8.23;84.26
73341;BME280;61578;52.002;5.468;2024-01-30T01:27:48;102539.91;;;8.15;84.87
73341;BME280;61578;52.002;5.468;2024-01-30T01:28:22;102546.03;;;8.17;84.35
73341;BME280;61578;52.002;5.468;2024-01-30T01:28:52;102537.25;;;8.15;84.36
73341;BME280;61578;52.002;5.468;2024-01-30T01:29:23;102534.78;;;8.09;84.87
73341;BME280;61578;52.002;5.468;2024-01-30T01:29:58;102543.41;;;8.16;85.33
73341;BME280;61578;52.002;5.468;2024-01-30T01:30:29;102515.72;;;7.96;84.49
73341;BME280;61578;52.002;5.468;2024-01-30T01:31:00;102541.81;;;8.10;84.37
73341;BME280;61578;52.002;5.468;2024-01-30T01:31:39;102542.63;;;8.13;84.95
73341;BME280;61578;52.002;5.468;2024-01-30T01:32:13;102543.56;;;8.11;84.26
73341;BME280;61578;52.002;5.468;2024-01-30T01:32:44;102531.28;;;8.08;84.41
73341;BME280;61578;52.002;5.468;2024-01-30T01:33:21;102538.34;;;8.08;84.34
73341;BME280;61578;52.002;5.468;2024-01-30T01:33:51;102537.47;;;8.07;84.71
73341;BME280;61578;52.002;5.468;2024-01-30T01:34:24;102529.75;;;8.00;84.36
73341;BME280;61578;52.002;5.468;2024-01-30T01:34:55;102525.31;;;8.00;84.59
73341;BME280;61578;52.002;5.468;2024-01-30T01:35:26;102530.66;;;7.99;84.23
73341;BME280;61578;52.002;5.468;2024-01-30T01:35:57;102482.16;;;7.66;83.98
73341;BME280;61578;52.002;5.468;2024-01-30T01:36:27;102529.09;;;7.92;84.89
73341;BME280;61578;52.002;5.468;2024-01-30T01:36:58;102479.53;;;7.64;84.52
73341;BME280;61578;52.002;5.468;2024-01-30T01:37:29;102529.91;;;7.94;84.97
73341;BME280;61578;52.002;5.468;2024-01-30T01:38:00;102520.31;;;7.90;84.80
73341;BME280;61578;52.002;5.468;2024-01-30T01:38:31;102527.31;;;7.92;85.00
73341;BME280;61578;52.002;5.468;2024-01-30T01:39:02;102528.19;;;7.93;85.38
73341;BME280;61578;52.002;5.468;2024-01-30T01:39:33;102535.28;;;7.91;84.99
73341;BME280;61578;52.002;5.468;2024-01-30T01:40:04;102524.66;;;7.92;85.53
73341;BME280;61578;52.002;5.468;2024-01-30T01:40:36;102528.25;;;7.90;84.79
73341;BME280;61578;52.002;5.468;2024-01-30T01:41:09;102510.00;;;7.79;85.18
73341;BME280;61578;52.002;5.468;2024-01-30T01:41:41;102518.56;;;7.89;85.63
73341;BME280;61578;52.002;5.468;2024-01-30T01:42:12;102526.34;;;7.95;86.02
73341;BME280;61578;52.002;5.468;2024-01-30T01:42:43;102525.41;;;7.97;86.50
73341;BME280;61578;52.002;5.468;2024-01-30T01:43:13;102523.63;;;7.98;86.92
73341;BME280;61578;52.002;5.468;2024-01-30T01:43:44;102472.19;;;7.75;86.63
73341;BME280;61578;52.002;5.468;2024-01-30T01:44:17;102509.47;;;8.00;86.56
73341;BME280;61578;52.002;5.468;2024-01-30T01:44:48;102526.81;;;8.10;85.58
73341;BME280;61578;52.002;5.468;2024-01-30T01:45:20;102481.63;;;7.86;86.38
73341;BME280;61578;52.002;5.468;2024-01-30T01:45:52;102514.56;;;8.06;85.43
73341;BME280;61578;52.002;5.468;2024-01-30T01:46:22;102519.84;;;8.06;85.25
73341;BME280;61578;52.002;5.468;2024-01-30T01:46:55;102528.66;;;8.07;85.06
73341;BME280;61578;52.002;5.468;2024-01-30T01:47:27;102533.06;;;8.08;86.18
73341;BME280;61578;52.002;5.468;2024-01-30T01:47:58;102484.31;;;7.84;85.28
73341;BME280;61578;52.002;5.468;2024-01-30T01:48:29;102527.69;;;8.11;85.83
73341;BME280;61578;52.002;5.468;2024-01-30T01:49:04;102526.75;;;8.13;87.09
73341;BME280;61578;52.002;5.468;2024-01-30T01:49:35;102534.50;;;8.20;86.46
73341;BME280;61578;52.002;5.468;2024-01-30T01:50:07;102527.25;;;8.26;86.86
73341;BME280;61578;52.002;5.468;2024-01-30T01:50:39;102528.91;;;8.30;86.71
73341;BME280;61578;52.002;5.468;2024-01-30T01:51:10;102522.75;;;8.30;85.93
73341;BME280;61578;52.002;5.468;2024-01-30T01:51:42;102530.66;;;8.33;85.47
73341;BME280;61578;52.002;5.468;2024-01-30T01:52:15;102479.31;;;8.06;85.67
73341;BME280;61578;52.002;5.468;2024-01-30T01:52:48;102521.84;;;8.31;85.43
73341;BME280;61578;52.002;5.468;2024-01-30T01:53:19;102531.53;;;8.33;84.94
73341;BME280;61578;52.002;5.468;2024-01-30T01:53:50;102526.28;;;8.32;85.60
73341;BME280;61578;52.002;5.468;2024-01-30T01:54:21;102526.28;;;8.32;85.41
73341;BME280;61578;52.002;5.468;2024-01-30T01:54:54;102523.50;;;8.35;86.44
73341;BME280;61578;52.002;5.468;2024-01-30T01:55:25;102530.50;;;8.37;85.02
73341;BME280;61578;52.002;5.468;2024-01-30T01:55:58;102524.38;;;8.35;84.91
73341;BME280;61578;52.002;5.468;2024-01-30T01:56:30;102516.44;;;8.35;85.36
73341;BME280;61578;52.002;5.468;2024-01-30T01:57:03;102518.34;;;8.32;84.86
73341;BME280;61578;52.002;5.468;2024-01-30T01:57:35;102527.03;;;8.35;85.33
73341;BME280;61578;52.002;5.468;2024-01-30T01:58:07;102520.03;;;8.34;85.08
73341;BME280;61578;52.002;5.468;2024-01-30T01:58:40;102508.66;;;8.29;85.80
73341;BME280;61578;52.002;5.468;2024-01-30T01:59:12;102519.06;;;8.37;86.23
73341;BME280;61578;52.002;5.468;2024-01-30T01:59:43;102505.09;;;8.32;85.79
73341;BME280;61578;52.002;5.468;2024-01-30T02:00:14;102511.16;;;8.35;85.31
73341;BME280;61578;52.002;5.468;2024-01-30T02:00:46;102521.50;;;8.44;85.50
73341;BME280;61578;52.002;5.468;2024-01-30T02:01:20;102520.53;;;8.47;84.75
73341;BME280;61578;52.002;5.468;2024-01-30T02:01:53;102476.25;;;8.21;84.64
73341;BME280;61578;52.002;5.468;2024-01-30T02:02:30;102518.03;;;8.42;84.31
73341;BME280;61578;52.002;5.468;2024-01-30T02:03:05;102525.13;;;8.40;84.43
73341;BME280;61578;52.002;5.468;2024-01-30T02:03:37;102526.03;;;8.39;84.73
73341;BME280;61578;52.002;5.468;2024-01-30T02:04:08;102525.22;;;8.37;84.69
73341;BME280;61578;52.002;5.468;2024-01-30T02:04:39;102520.88;;;8.35;84.53
73341;BME280;61578;52.002;5.468;2024-01-30T02:05:10;102475.72;;;8.08;84.87
73341;BME280;61578;52.002;5.468;2024-01-30T02:05:41;102523.47;;;8.36;84.59
73341;BME280;61578;52.002;5.468;2024-01-30T02:06:16;102523.50;;;8.35;84.17
73341;BME280;61578;52.002;5.468;2024-01-30T02:06:47;102513.03;;;8.30;84.58
73341;BME280;61578;52.002;5.468;2024-01-30T02:07:18;102516.56;;;8.32;85.10
73341;BME280;61578;52.002;5.468;2024-01-30T02:07:50;102527.09;;;8.34;84.21
73341;BME280;61578;52.002;5.468;2024-01-30T02:08:22;102488.00;;;8.11;84.55
73341;BME280;61578;52.002;5.468;2024-01-30T02:08:54;102529.78;;;8.32;85.11
73341;BME280;61578;52.002;5.468;2024-01-30T02:09:25;102526.28;;;8.30;83.58
73341;BME280;61578;52.002;5.468;2024-01-30T02:09:56;102520.22;;;8.25;84.32
73341;BME280;61578;52.002;5.468;2024-01-30T02:10:27;102469.19;;;7.89;84.06
73341;BME280;61578;52.002;5.468;2024-01-30T02:10:58;102530.88;;;8.24;84.47
73341;BME280;61578;52.002;5.468;2024-01-30T02:11:30;102524.75;;;8.22;84.10
73341;BME280;61578;52.002;5.468;2024-01-30T02:12:02;102518.63;;;8.20;85.24
73341;BME280;61578;52.002;5.468;2024-01-30T02:12:33;102538.03;;;8.20;84.62
73341;BME280;61578;52.002;5.468;2024-01-30T02:13:04;102524.78;;;8.20;84.56
73341;BME280;61578;52.002;5.468;2024-01-30T02:13:36;102520.47;;;8.16;84.17
73341;BME280;61578;52.002;5.468;2024-01-30T02:14:07;102521.47;;;8.13;85.97
73341;BME280;61578;52.002;5.468;2024-01-30T02:14:50;102518.75;;;8.15;83.88
73341;BME280;61578;52.002;5.468;2024-01-30T02:15:21;102520.50;;;8.14;84.73
73341;BME280;61578;52.002;5.468;2024-01-30T02:15:52;102529.38;;;8.13;84.66
73341;BME280;61578;52.002;5.468;2024-01-30T02:16:22;102524.03;;;8.15;84.33
73341;BME280;61578;52.002;5.468;2024-01-30T02:16:53;102520.47;;;8.16;85.44
73341;BME280;61578;52.002;5.468;2024-01-30T02:17:24;102463.97;;;7.86;85.41
73341;BME280;61578;52.002;5.468;2024-01-30T02:17:55;102522.16;;;8.20;84.97
73341;BME280;61578;52.002;5.468;2024-01-30T02:18:25;102523.97;;;8.18;85.18
73341;BME280;61578;52.002;5.468;2024-01-30T02:18:56;102513.41;;;8.17;84.84
73341;BME280;61578;52.002;5.468;2024-01-30T02:19:27;102519.53;;;8.19;84.95
73341;BME280;61578;52.002;5.468;2024-01-30T02:19:57;102469.16;;;7.91;84.34
73341;BME280;61578;52.002;5.468;2024-01-30T02:20:30;102523.09;;;8.18;84.73
73341;BME280;61578;52.002;5.468;2024-01-30T02:21:04;102522.19;;;8.19;85.25
73341;BME280;61578;52.002;5.468;2024-01-30T02:21:35;102522.19;;;8.19;85.38
73341;BME280;61578;52.002;5.468;2024-01-30T02:22:07;102516.03;;;8.18;85.08
73341;BME280;61578;52.002;5.468;2024-01-30T02:22:40;102516.97;;;8.16;84.80
73341;BME280;61578;52.002;5.468;2024-01-30T02:23:15;102509.03;;;8.16;84.88
73341;BME280;61578;52.002;5.468;2024-01-30T02:23:49;102509.00;;;8.17;84.20
73341;BME280;61578;52.002;5.468;2024-01-30T02:24:21;102504.78;;;8.10;84.35
73341;BME280;61578;52.002;5.468;2024-01-30T02:24:51;102518.75;;;8.15;85.30
73341;BME280;61578;52.002;5.468;2024-01-30T02:25:38;102472.72;;;7.90;84.44
73341;BME280;61578;52.002;5.468;2024-01-30T02:26:16;102516.16;;;8.13;84.85
73341;BME280;61578;52.002;5.468;2024-01-30T02:26:47;102509.03;;;8.16;85.47
73341;BME280;61578;52.002;5.468;2024-01-30T02:27:18;102506.34;;;8.17;85.31
73341;BME280;61578;52.002;5.468;2024-01-30T02:27:49;102512.50;;;8.18;85.20
73341;BME280;61578;52.002;5.468;2024-01-30T02:28:19;102493.38;;;8.08;84.54
73341;BME280;61578;52.002;5.468;2024-01-30T02:28:50;102504.59;;;8.16;84.69
73341;BME280;61578;52.002;5.468;2024-01-30T02:29:21;102473.56;;;7.92;84.05
73341;BME280;61578;52.002;5.468;2024-01-30T02:29:52;102509.25;;;8.08;84.07
73341;BME280;61578;52.002;5.468;2024-01-30T02:30:22;102497.09;;;8.01;84.22
73341;BME280;61578;52.002;5.468;2024-01-30T02:30:53;102502.25;;;8.05;85.58
73341;BME280;61578;52.002;5.468;2024-01-30T02:31:25;102510.97;;;8.09;85.45
73341;BME280;61578;52.002;5.468;2024-01-30T02:31:56;102468.50;;;7.83;85.24
73341;BME280;61578;52.002;5.468;2024-01-30T02:32:27;102509.13;;;8.12;84.76
73341;BME280;61578;52.002;5.468;2024-01-30T02:32:58;102493.56;;;8.02;85.27
73341;BME280;61578;52.002;5.468;2024-01-30T02:33:29;102516.94;;;8.17;86.07
73341;BME280;61578;52.002;5.468;2024-01-30T02:34:00;102514.28;;;8.17;85.03
73341;BME280;61578;52.002;5.468;2024-01-30T02:34:30;102500.38;;;8.10;84.81
73341;BME280;61578;52.002;5.468;2024-01-30T02:35:01;102516.84;;;8.20;84.99
73341;BME280;61578;52.002;5.468;2024-01-30T02:35:32;102508.91;;;8.20;84.82
73341;BME280;61578;52.002;5.468;2024-01-30T02:36:04;102515.03;;;8.22;85.00
73341;BME280;61578;52.002;5.468;2024-01-30T02:36:35;102524.72;;;8.23;84.44
73341;BME280;61578;52.002;5.468;2024-01-30T02:37:06;102496.81;;;8.11;84.01
73341;BME280;61578;52.002;5.468;2024-01-30T02:37:36;102522.19;;;8.19;84.19
73341;BME280;61578;52.002;5.468;2024-01-30T02:38:07;102511.66;;;8.16;83.67
73341;BME280;61578;52.002;5.468;2024-01-30T02:38:38;102515.16;;;8.18;84.34
73341;BME280;61578;52.002;5.468;2024-01-30T02:39:09;102513.41;;;8.17;84.32
73341;BME280;61578;52.002;5.468;2024-01-30T02:39:40;102520.41;;;8.19;85.06
73341;BME280;61578;52.002;5.468;2024-01-30T02:40:11;102516.88;;;8.19;84.94
73341;BME280;61578;52.002;5.468;2024-01-30T02:40:42;102516.81;;;8.22;85.31
73341;BME280;61578;52.002;5.468;2024-01-30T02:41:12;102511.56;;;8.20;85.42
73341;BME280;61578;52.002;5.468;2024-01-30T02:41:43;102516.66;;;8.26;85.46
73341;BME280;61578;52.002;5.468;2024-01-30T02:42:14;102524.59;;;8.26;84.78
73341;BME280;61578;52.002;5.468;2024-01-30T02:42:45;102520.19;;;8.27;84.36
73341;BME280;61578;52.002;5.468;2024-01-30T02:43:16;102509.75;;;8.22;83.73
73341;BME280;61578;52.002;5.468;2024-01-30T02:43:47;102522.06;;;8.23;83.61
73341;BME280;61578;52.002;5.468;2024-01-30T02:44:18;102513.38;;;8.18;84.13
73341;BME280;61578;52.002;5.468;2024-01-30T02:44:49;102514.31;;;8.16;84.85
73341;BME280;61578;52.002;5.468;2024-01-30T02:45:20;102452.69;;;7.81;84.29
73341;BME280;61578;52.002;5.468;2024-01-30T02:45:50;102524.00;;;8.17;84.43
73341;BME280;61578;52.002;5.468;2024-01-30T02:46:21;102509.03;;;8.16;84.62